createdAt,value
2017-08-16T00:00:47.553Z,17.88
2017-08-16T00:01:47.545Z,17.84
2017-08-16T00:02:47.237Z,17.9
2017-08-16T00:03:47.541Z,17.86
2017-08-16T00:04:47.233Z,17.75
2017-08-16T00:05:47.535Z,17.84
2017-08-16T00:06:47.533Z,17.86
2017-08-16T00:07:47.226Z,17.87
2017-08-16T00:08:47.529Z,17.82
2017-08-16T00:09:47.523Z,17.84
2017-08-16T00:10:47.524Z,17.79
2017-08-16T00:11:47.520Z,17.82
2017-08-16T00:12:47.518Z,17.76
2017-08-16T00:13:47.512Z,17.79
2017-08-16T00:14:47.510Z,17.78
2017-08-16T00:15:47.501Z,17.78
2017-08-16T00:16:47.499Z,17.84
2017-08-16T00:17:47.497Z,17.78
2017-08-16T00:18:47.503Z,17.72
2017-08-16T00:19:47.490Z,17.71
2017-08-16T00:20:47.491Z,17.72
2017-08-16T00:21:47.488Z,17.75
2017-08-16T00:22:47.486Z,17.84
2017-08-16T00:23:47.480Z,17.8
2017-08-16T00:24:47.478Z,17.82
2017-08-16T00:25:47.475Z,17.86
2017-08-16T00:26:47.164Z,17.84
2017-08-16T00:27:47.469Z,17.86
2017-08-16T00:28:47.473Z,17.8
2017-08-16T00:29:46.851Z,17.87
2017-08-16T00:30:47.155Z,17.9
2017-08-16T00:31:47.457Z,17.91
2017-08-16T00:32:47.150Z,17.93
2017-08-16T00:33:47.147Z,17.88
2017-08-16T00:34:47.448Z,17.93
2017-08-16T00:35:47.140Z,17.95
2017-08-16T00:36:47.442Z,17.94
2017-08-16T00:37:47.440Z,17.94
2017-08-16T00:38:47.437Z,17.84
2017-08-16T00:39:47.126Z,17.86
2017-08-16T00:40:47.429Z,17.76
2017-08-16T00:41:47.121Z,17.8
2017-08-16T00:42:47.139Z,17.79
2017-08-16T00:43:47.115Z,17.86
2017-08-16T00:44:47.417Z,17.75
2017-08-16T00:45:47.115Z,17.8
2017-08-16T00:46:47.412Z,17.8
2017-08-16T00:47:47.102Z,17.91
2017-08-16T00:48:47.402Z,17.8
2017-08-16T00:49:47.402Z,17.82
2017-08-16T00:50:47.401Z,17.8
2017-08-16T00:51:47.396Z,17.84
2017-08-16T00:52:47.089Z,17.9
2017-08-16T00:53:47.392Z,17.8
2017-08-16T00:54:47.385Z,17.88
2017-08-16T00:55:47.077Z,17.8
2017-08-16T00:56:47.074Z,17.9
2017-08-16T00:57:47.068Z,17.9
2017-08-16T00:58:47.071Z,17.87
2017-08-16T00:59:47.372Z,17.8
2017-08-16T01:00:47.064Z,17.82
2017-08-16T01:01:47.058Z,17.84
2017-08-16T01:02:47.054Z,17.78
2017-08-16T01:03:47.053Z,17.86
2017-08-16T01:04:47.047Z,17.79
2017-08-16T01:05:47.052Z,17.73
2017-08-16T01:06:47.042Z,17.72
2017-08-16T01:07:47.038Z,17.71
2017-08-16T01:08:47.037Z,17.71
2017-08-16T01:09:47.037Z,17.72
2017-08-16T01:10:47.031Z,17.78
2017-08-16T01:11:47.329Z,17.73
2017-08-16T01:12:47.025Z,17.73
2017-08-16T01:13:47.021Z,17.71
2017-08-16T01:14:47.019Z,17.75
2017-08-16T01:15:47.319Z,17.82
2017-08-16T01:16:47.318Z,17.79
2017-08-16T01:17:47.329Z,17.8
2017-08-16T01:18:47.316Z,17.78
2017-08-16T01:19:47.317Z,17.82
2017-08-16T01:20:47.308Z,17.87
2017-08-16T01:21:47.302Z,17.9
2017-08-16T01:22:47.302Z,17.93
2017-08-16T01:23:47.300Z,17.97
2017-08-16T01:24:47.297Z,17.9
2017-08-16T01:25:47.291Z,17.97
2017-08-16T01:26:47.288Z,17.97
2017-08-16T01:27:47.288Z,17.98
2017-08-16T01:28:47.284Z,18.03
2017-08-16T01:29:47.280Z,18.02
2017-08-16T01:30:46.975Z,18
2017-08-16T01:31:46.966Z,18.09
2017-08-16T01:32:47.270Z,18.09
2017-08-16T01:33:47.268Z,18.05
2017-08-16T01:34:47.267Z,18.03
2017-08-16T01:35:47.264Z,18.12
2017-08-16T01:36:47.255Z,18.11
2017-08-16T01:37:47.255Z,18.11
2017-08-16T01:38:47.251Z,18.09
2017-08-16T01:39:47.251Z,18.15
2017-08-16T01:40:47.243Z,18.16
2017-08-16T01:41:47.243Z,18.12
2017-08-16T01:42:47.241Z,18.08
2017-08-16T01:43:47.235Z,18.11
2017-08-16T01:44:46.923Z,18.09
2017-08-16T01:45:47.244Z,18.13
2017-08-16T01:46:46.626Z,18.11
2017-08-16T01:47:47.219Z,18.12
2017-08-16T01:48:47.227Z,18.18
2017-08-16T01:49:47.221Z,18.18
2017-08-16T01:50:47.211Z,18.27
2017-08-16T01:51:47.211Z,18.16
2017-08-16T01:52:47.213Z,18.13
2017-08-16T01:53:46.902Z,18.24
2017-08-16T01:54:47.197Z,18.27
2017-08-16T01:55:47.201Z,18.19
2017-08-16T01:56:47.229Z,18.24
2017-08-16T01:57:47.191Z,18.26
2017-08-16T01:58:47.194Z,18.3
2017-08-16T01:59:47.189Z,18.26
2017-08-16T02:00:47.189Z,18.23
2017-08-16T02:01:47.180Z,18.12
2017-08-16T02:02:47.179Z,18.15
2017-08-16T02:03:47.179Z,18.16
2017-08-16T02:04:47.170Z,18.09
2017-08-16T02:05:47.174Z,18.08
2017-08-16T02:06:47.165Z,18.05
2017-08-16T02:07:47.155Z,17.95
2017-08-16T02:08:47.158Z,18.06
2017-08-16T02:09:47.156Z,18.05
2017-08-16T02:10:47.154Z,17.97
2017-08-16T02:11:47.148Z,17.98
2017-08-16T02:12:47.151Z,17.94
2017-08-16T02:13:47.150Z,17.98
2017-08-16T02:14:47.138Z,17.94
2017-08-16T02:15:47.134Z,18.05
2017-08-16T02:16:47.133Z,18
2017-08-16T02:17:47.154Z,17.91
2017-08-16T02:18:47.130Z,17.9
2017-08-16T02:19:47.122Z,17.94
2017-08-16T02:20:47.123Z,17.98
2017-08-16T02:21:47.117Z,17.91
2017-08-16T02:22:47.117Z,18
2017-08-16T02:23:47.109Z,17.95
2017-08-16T02:24:46.803Z,17.88
2017-08-16T02:25:47.110Z,17.98
2017-08-16T02:26:47.096Z,17.93
2017-08-16T02:27:47.101Z,18.02
2017-08-16T02:28:47.101Z,18.03
2017-08-16T02:29:47.094Z,18
2017-08-16T02:30:47.087Z,18.03
2017-08-16T02:31:47.083Z,17.9
2017-08-16T02:32:47.086Z,17.91
2017-08-16T02:33:47.078Z,18.02
2017-08-16T02:34:47.077Z,17.94
2017-08-16T02:35:47.080Z,17.97
2017-08-16T02:36:47.077Z,17.93
2017-08-16T02:37:46.762Z,18.02
2017-08-16T02:38:47.063Z,18
2017-08-16T02:39:47.065Z,17.97
2017-08-16T02:40:47.056Z,17.94
2017-08-16T02:41:47.057Z,17.93
2017-08-16T02:42:47.056Z,17.94
2017-08-16T02:43:46.436Z,17.97
2017-08-16T02:44:47.051Z,17.94
2017-08-16T02:45:47.044Z,17.9
2017-08-16T02:46:47.042Z,17.95
2017-08-16T02:47:47.036Z,18.02
2017-08-16T02:48:47.026Z,17.93
2017-08-16T02:49:46.724Z,17.94
2017-08-16T02:50:47.027Z,17.91
2017-08-16T02:51:47.024Z,17.97
2017-08-16T02:52:47.016Z,17.98
2017-08-16T02:53:46.708Z,17.93
2017-08-16T02:54:47.012Z,17.9
2017-08-16T02:55:46.701Z,17.93
2017-08-16T02:56:47.005Z,17.97
2017-08-16T02:57:46.697Z,18.02
2017-08-16T02:58:46.717Z,17.98
2017-08-16T02:59:46.999Z,17.95
2017-08-16T03:00:46.999Z,17.93
2017-08-16T03:01:46.993Z,17.97
2017-08-16T03:02:46.988Z,17.95
2017-08-16T03:03:46.982Z,17.94
2017-08-16T03:04:46.982Z,17.88
2017-08-16T03:05:46.977Z,17.91
2017-08-16T03:06:46.970Z,17.95
2017-08-16T03:07:46.666Z,17.94
2017-08-16T03:08:46.971Z,17.95
2017-08-16T03:09:46.666Z,17.88
2017-08-16T03:10:46.661Z,17.98
2017-08-16T03:11:46.654Z,17.93
2017-08-16T03:12:46.650Z,17.93
2017-08-16T03:13:46.645Z,17.95
2017-08-16T03:14:46.956Z,17.97
2017-08-16T03:15:46.941Z,17.91
2017-08-16T03:16:46.942Z,17.91
2017-08-16T03:17:46.939Z,17.87
2017-08-16T03:18:46.937Z,17.94
2017-08-16T03:19:46.625Z,18.02
2017-08-16T03:20:46.930Z,17.97
2017-08-16T03:21:46.928Z,17.86
2017-08-16T03:22:46.922Z,18.02
2017-08-16T03:23:46.610Z,17.91
2017-08-16T03:24:46.921Z,17.97
2017-08-16T03:25:46.910Z,17.97
2017-08-16T03:26:46.913Z,17.87
2017-08-16T03:27:46.905Z,17.95
2017-08-16T03:28:46.908Z,17.9
2017-08-16T03:29:46.903Z,17.97
2017-08-16T03:30:46.900Z,18.03
2017-08-16T03:31:46.901Z,17.98
2017-08-16T03:32:46.893Z,17.9
2017-08-16T03:33:46.891Z,18
2017-08-16T03:34:46.899Z,18.02
2017-08-16T03:35:46.880Z,17.97
2017-08-16T03:36:46.881Z,17.95
2017-08-16T03:37:46.871Z,17.93
2017-08-16T03:38:46.565Z,17.88
2017-08-16T03:39:46.871Z,17.94
2017-08-16T03:40:46.864Z,17.95
2017-08-16T03:41:46.559Z,17.94
2017-08-16T03:42:46.859Z,17.88
2017-08-16T03:43:46.852Z,17.94
2017-08-16T03:44:46.540Z,17.97
2017-08-16T03:45:46.852Z,17.88
2017-08-16T03:46:46.842Z,17.93
2017-08-16T03:47:46.842Z,17.93
2017-08-16T03:48:46.529Z,17.93
2017-08-16T03:49:46.526Z,17.97
2017-08-16T03:50:46.524Z,17.93
2017-08-16T03:51:46.825Z,17.88
2017-08-16T03:52:46.825Z,17.93
2017-08-16T03:53:46.821Z,18
2017-08-16T03:54:46.823Z,17.94
2017-08-16T03:55:46.817Z,17.95
2017-08-16T03:56:46.808Z,17.93
2017-08-16T03:57:46.812Z,17.93
2017-08-16T03:58:46.800Z,17.97
2017-08-16T03:59:46.798Z,17.91
2017-08-16T04:00:46.795Z,17.98
2017-08-16T04:01:46.791Z,17.91
2017-08-16T04:02:46.791Z,17.91
2017-08-16T04:03:46.784Z,18
2017-08-16T04:04:46.480Z,17.88
2017-08-16T04:05:46.792Z,18
2017-08-16T04:06:46.782Z,17.97
2017-08-16T04:07:46.771Z,18
2017-08-16T04:08:46.461Z,17.91
2017-08-16T04:09:46.770Z,17.95
2017-08-16T04:10:46.455Z,17.94
2017-08-16T04:11:46.764Z,17.93
2017-08-16T04:12:46.758Z,17.9
2017-08-16T04:13:46.755Z,17.95
2017-08-16T04:14:46.750Z,17.91
2017-08-16T04:15:46.748Z,17.9
2017-08-16T04:16:46.740Z,17.94
2017-08-16T04:17:46.743Z,17.95
2017-08-16T04:18:46.738Z,17.95
2017-08-16T04:19:46.736Z,17.93
2017-08-16T04:20:46.733Z,17.94
2017-08-16T04:21:46.731Z,17.95
2017-08-16T04:22:46.721Z,17.97
2017-08-16T04:23:46.415Z,18
2017-08-16T04:24:46.724Z,17.97
2017-08-16T04:25:46.715Z,17.98
2017-08-16T04:26:46.708Z,18.02
2017-08-16T04:27:46.707Z,17.98
2017-08-16T04:28:46.711Z,17.95
2017-08-16T04:29:46.713Z,17.98
2017-08-16T04:30:46.697Z,17.94
2017-08-16T04:31:46.693Z,17.93
2017-08-16T04:32:46.693Z,17.97
2017-08-16T04:33:46.690Z,17.98
2017-08-16T04:34:46.686Z,17.95
2017-08-16T04:35:46.681Z,17.94
2017-08-16T04:36:46.680Z,17.88
2017-08-16T04:37:46.673Z,18.03
2017-08-16T04:38:46.675Z,17.97
2017-08-16T04:39:46.669Z,17.91
2017-08-16T04:40:46.672Z,18.03
2017-08-16T04:41:46.661Z,17.91
2017-08-16T04:42:46.661Z,18.03
2017-08-16T04:43:46.663Z,18
2017-08-16T04:44:46.667Z,18.06
2017-08-16T04:45:46.648Z,18.02
2017-08-16T04:46:46.650Z,17.97
2017-08-16T04:47:46.643Z,17.88
2017-08-16T04:48:46.641Z,17.94
2017-08-16T04:49:46.646Z,18.02
2017-08-16T04:50:46.632Z,17.95
2017-08-16T04:51:46.631Z,17.94
2017-08-16T04:52:46.623Z,17.94
2017-08-16T04:53:46.621Z,17.95
2017-08-16T04:54:46.619Z,17.91
2017-08-16T04:55:46.620Z,17.94
2017-08-16T04:56:46.618Z,17.94
2017-08-16T04:57:46.610Z,17.93
2017-08-16T04:58:46.603Z,17.91
2017-08-16T04:59:46.601Z,17.94
2017-08-16T05:00:46.609Z,17.9
2017-08-16T05:01:46.605Z,17.91
2017-08-16T05:02:46.592Z,17.88
2017-08-16T05:03:46.287Z,17.86
2017-08-16T05:04:46.585Z,17.91
2017-08-16T05:05:46.578Z,18
2017-08-16T05:06:46.591Z,17.93
2017-08-16T05:07:46.582Z,17.87
2017-08-16T05:08:46.605Z,17.88
2017-08-16T05:09:46.574Z,17.97
2017-08-16T05:10:46.566Z,17.86
2017-08-16T05:11:46.562Z,17.87
2017-08-16T05:12:46.255Z,17.79
2017-08-16T05:13:46.560Z,17.86
2017-08-16T05:14:46.249Z,17.87
2017-08-16T05:15:46.546Z,17.93
2017-08-16T05:16:46.241Z,17.87
2017-08-16T05:17:46.235Z,17.95
2017-08-16T05:18:46.538Z,17.91
2017-08-16T05:19:46.537Z,17.87
2017-08-16T05:20:46.534Z,17.98
2017-08-16T05:21:46.529Z,17.97
2017-08-16T05:22:46.534Z,17.95
2017-08-16T05:23:46.522Z,17.94
2017-08-16T05:24:46.515Z,17.94
2017-08-16T05:25:46.523Z,17.93
2017-08-16T05:26:46.204Z,17.95
2017-08-16T05:27:46.235Z,18.02
2017-08-16T05:28:46.511Z,17.93
2017-08-16T05:29:46.506Z,17.98
2017-08-16T05:30:46.501Z,17.93
2017-08-16T05:31:46.496Z,17.95
2017-08-16T05:32:46.492Z,17.93
2017-08-16T05:33:46.488Z,17.91
2017-08-16T05:34:46.490Z,17.97
2017-08-16T05:35:46.488Z,17.93
2017-08-16T05:36:46.489Z,18
2017-08-16T05:37:46.478Z,17.95
2017-08-16T05:38:46.471Z,17.97
2017-08-16T05:39:46.165Z,17.9
2017-08-16T05:40:46.467Z,18.05
2017-08-16T05:41:46.463Z,18.09
2017-08-16T05:42:46.460Z,18.03
2017-08-16T05:43:46.461Z,18.12
2017-08-16T05:44:46.453Z,18.06
2017-08-16T05:45:46.455Z,17.97
2017-08-16T05:46:46.449Z,17.97
2017-08-16T05:47:46.446Z,18.08
2017-08-16T05:48:46.135Z,18.11
2017-08-16T05:49:46.438Z,18.09
2017-08-16T05:50:46.438Z,18.13
2017-08-16T05:51:46.427Z,18.12
2017-08-16T05:52:46.121Z,18.16
2017-08-16T05:53:46.428Z,18.08
2017-08-16T05:54:46.418Z,18.09
2017-08-16T05:55:46.418Z,18.16
2017-08-16T05:56:46.417Z,18.13
2017-08-16T05:57:46.410Z,18.18
2017-08-16T05:58:46.412Z,18.09
2017-08-16T05:59:46.405Z,18.19
2017-08-16T06:00:46.401Z,18.27
2017-08-16T06:01:46.394Z,18.24
2017-08-16T06:02:46.391Z,18.34
2017-08-16T06:03:46.085Z,18.28
2017-08-16T06:04:46.078Z,18.28
2017-08-16T06:05:46.385Z,18.33
2017-08-16T06:06:46.376Z,18.26
2017-08-16T06:07:46.376Z,18.41
2017-08-16T06:08:46.375Z,18.45
2017-08-16T06:09:46.070Z,18.3
2017-08-16T06:10:46.062Z,18.42
2017-08-16T06:11:46.376Z,18.45
2017-08-16T06:12:46.062Z,18.52
2017-08-16T06:13:46.359Z,18.53
2017-08-16T06:14:46.052Z,18.51
2017-08-16T06:15:46.352Z,18.45
2017-08-16T06:16:46.045Z,18.49
2017-08-16T06:17:46.346Z,18.46
2017-08-16T06:18:46.342Z,18.55
2017-08-16T06:19:46.341Z,18.52
2017-08-16T06:20:46.588Z,18.6
2017-08-16T06:21:46.345Z,18.57
2017-08-16T06:22:46.351Z,18.55
2017-08-16T06:23:46.327Z,18.49
2017-08-16T06:24:46.323Z,18.55
2017-08-16T06:25:46.321Z,18.43
2017-08-16T06:26:46.320Z,18.48
2017-08-16T06:27:46.314Z,18.55
2017-08-16T06:28:46.313Z,18.52
2017-08-16T06:29:46.307Z,18.61
2017-08-16T06:30:46.307Z,18.63
2017-08-16T06:31:46.298Z,18.64
2017-08-16T06:32:46.296Z,18.61
2017-08-16T06:33:46.298Z,18.63
2017-08-16T06:34:46.294Z,18.63
2017-08-16T06:35:46.287Z,18.71
2017-08-16T06:36:45.979Z,18.76
2017-08-16T06:37:46.277Z,18.76
2017-08-16T06:38:46.288Z,18.74
2017-08-16T06:39:46.282Z,18.81
2017-08-16T06:40:46.273Z,18.82
2017-08-16T06:41:45.964Z,18.83
2017-08-16T06:42:46.270Z,18.89
2017-08-16T06:43:46.261Z,18.94
2017-08-16T06:44:46.259Z,19.04
2017-08-16T06:45:46.259Z,19.08
2017-08-16T06:46:46.252Z,19.17
2017-08-16T06:47:46.251Z,19.23
2017-08-16T06:48:46.244Z,19.39
2017-08-16T06:49:46.246Z,19.49
2017-08-16T06:50:46.244Z,19.6
2017-08-16T06:51:46.245Z,19.66
2017-08-16T06:52:46.236Z,19.9
2017-08-16T06:53:46.236Z,20.3
2017-08-16T06:54:46.233Z,20.68
2017-08-16T06:55:46.229Z,21.11
2017-08-16T06:56:45.921Z,21.44
2017-08-16T06:57:46.223Z,21.84
2017-08-16T06:58:46.218Z,22.31
2017-08-16T06:59:46.220Z,22.58
2017-08-16T07:00:46.209Z,22.78
2017-08-16T07:01:46.216Z,22.7
2017-08-16T07:02:45.906Z,22.58
2017-08-16T07:03:46.207Z,22.53
2017-08-16T07:04:45.899Z,22.77
2017-08-16T07:05:45.893Z,22.96
2017-08-16T07:06:46.200Z,23.13
2017-08-16T07:07:46.195Z,23.29
2017-08-16T07:08:45.930Z,23.58
2017-08-16T07:09:46.190Z,23.86
2017-08-16T07:10:46.191Z,24.28
2017-08-16T07:11:46.191Z,24.62
2017-08-16T07:12:46.182Z,25.09
2017-08-16T07:13:45.888Z,25.29
2017-08-16T07:14:46.178Z,25.43
2017-08-16T07:15:45.872Z,25.68
2017-08-16T07:16:46.175Z,25.91
2017-08-16T07:17:46.169Z,26.06
2017-08-16T07:18:46.168Z,26.08
2017-08-16T07:19:45.859Z,26.36
2017-08-16T07:20:46.173Z,26.51
2017-08-16T07:21:45.859Z,26.6
2017-08-16T07:22:46.165Z,26.59
2017-08-16T07:23:45.855Z,26.55
2017-08-16T07:24:46.159Z,26.7
2017-08-16T07:25:46.158Z,26.93
2017-08-16T07:26:45.856Z,27.16
2017-08-16T07:27:46.156Z,27.15
2017-08-16T07:28:46.152Z,26.88
2017-08-16T07:29:45.844Z,26.76
2017-08-16T07:30:46.151Z,26.81
2017-08-16T07:31:45.839Z,26.96
2017-08-16T07:32:46.148Z,27.33
2017-08-16T07:33:45.847Z,27.67
2017-08-16T07:34:46.152Z,28.03
2017-08-16T07:35:45.838Z,28.33
2017-08-16T07:36:45.838Z,28.74
2017-08-16T07:37:45.838Z,28.82
2017-08-16T07:38:46.138Z,28.9
2017-08-16T07:39:46.136Z,29.16
2017-08-16T07:40:46.138Z,29.34
2017-08-16T07:41:45.830Z,29.47
2017-08-16T07:42:46.132Z,29.64
2017-08-16T07:43:45.828Z,29.81
2017-08-16T07:44:46.128Z,30.01
2017-08-16T07:45:45.820Z,30.01
2017-08-16T07:46:45.830Z,29.9
2017-08-16T07:47:46.126Z,29.83
2017-08-16T07:48:46.125Z,29.74
2017-08-16T07:49:46.124Z,29.74
2017-08-16T07:50:46.123Z,29.99
2017-08-16T07:51:46.120Z,30.11
2017-08-16T07:52:46.128Z,30.14
2017-08-16T07:53:45.813Z,30.38
2017-08-16T07:54:45.811Z,30.55
2017-08-16T07:55:45.813Z,30.62
2017-08-16T07:56:45.817Z,30.73
2017-08-16T07:57:45.803Z,31
2017-08-16T07:58:46.110Z,31.29
2017-08-16T07:59:45.813Z,31.1
2017-08-16T08:00:45.495Z,30.63
2017-08-16T08:01:46.106Z,30.06
2017-08-16T08:02:46.109Z,29.74
2017-08-16T08:03:45.795Z,29.69
2017-08-16T08:04:45.792Z,29.83
2017-08-16T08:05:45.793Z,30.01
2017-08-16T08:06:45.792Z,30.33
2017-08-16T08:07:46.098Z,30.51
2017-08-16T08:08:45.798Z,30.73
2017-08-16T08:09:46.094Z,30.83
2017-08-16T08:10:46.096Z,30.8
2017-08-16T08:11:46.089Z,30.81
2017-08-16T08:12:46.088Z,30.76
2017-08-16T08:13:46.084Z,30.76
2017-08-16T08:14:46.085Z,30.86
2017-08-16T08:15:45.775Z,30.73
2017-08-16T08:16:45.775Z,30.86
2017-08-16T08:17:45.772Z,31.15
2017-08-16T08:18:46.076Z,31.41
2017-08-16T08:19:46.073Z,31.6
2017-08-16T08:20:46.073Z,31.77
2017-08-16T08:21:46.068Z,31.81
2017-08-16T08:22:46.067Z,31.62
2017-08-16T08:23:45.755Z,31.5
2017-08-16T08:24:45.760Z,31.28
2017-08-16T08:25:46.063Z,31.08
2017-08-16T08:26:45.754Z,31.04
2017-08-16T08:27:45.753Z,30.99
2017-08-16T08:28:45.785Z,30.7
2017-08-16T08:29:46.054Z,30.26
2017-08-16T08:30:46.049Z,29.83
2017-08-16T08:31:46.055Z,29.35
2017-08-16T08:32:46.051Z,28.84
2017-08-16T08:33:45.741Z,28.38
2017-08-16T08:34:45.742Z,27.93
2017-08-16T08:35:46.041Z,27.57
2017-08-16T08:36:45.734Z,27.35
2017-08-16T08:37:45.436Z,27.01
2017-08-16T08:38:45.731Z,26.63
2017-08-16T08:39:46.033Z,26.37
2017-08-16T08:40:45.728Z,26.19
2017-08-16T08:41:45.723Z,25.89
2017-08-16T08:42:46.034Z,25.8
2017-08-16T08:43:45.719Z,25.52
2017-08-16T08:44:45.416Z,25.33
2017-08-16T08:45:45.716Z,25.25
2017-08-16T08:46:46.026Z,25.11
2017-08-16T08:47:45.706Z,24.93
2017-08-16T08:48:45.712Z,24.92
2017-08-16T08:49:45.703Z,24.82
2017-08-16T08:50:45.700Z,24.71
2017-08-16T08:51:46.009Z,24.78
2017-08-16T08:52:45.701Z,24.75
2017-08-16T08:53:45.700Z,24.75
2017-08-16T08:54:46.006Z,24.81
2017-08-16T08:55:45.998Z,24.68
2017-08-16T08:56:45.997Z,24.77
2017-08-16T08:57:45.995Z,24.75
2017-08-16T08:58:45.685Z,24.63
2017-08-16T08:59:45.998Z,24.65
2017-08-16T09:00:45.989Z,24.65
2017-08-16T09:01:45.984Z,24.66
2017-08-16T09:02:45.994Z,24.55
2017-08-16T09:03:45.978Z,24.53
2017-08-16T09:04:45.987Z,24.62
2017-08-16T09:05:45.982Z,24.48
2017-08-16T09:06:45.973Z,24.51
2017-08-16T09:07:45.979Z,24.5
2017-08-16T09:08:45.661Z,24.58
2017-08-16T09:09:45.966Z,24.59
2017-08-16T09:10:45.962Z,24.62
2017-08-16T09:11:45.961Z,24.56
2017-08-16T09:12:45.960Z,24.55
2017-08-16T09:13:45.984Z,24.63
2017-08-16T09:14:45.960Z,24.71
2017-08-16T09:15:45.655Z,24.65
2017-08-16T09:16:45.974Z,24.77
2017-08-16T09:17:45.950Z,24.78
2017-08-16T09:18:45.637Z,24.75
2017-08-16T09:19:45.952Z,24.79
2017-08-16T09:20:45.633Z,24.94
2017-08-16T09:21:45.944Z,24.99
2017-08-16T09:22:45.945Z,24.96
2017-08-16T09:23:45.933Z,25.01
2017-08-16T09:24:45.933Z,25.09
2017-08-16T09:25:45.928Z,25.26
2017-08-16T09:26:45.931Z,25.29
2017-08-16T09:27:45.924Z,25.31
2017-08-16T09:28:45.940Z,25.39
2017-08-16T09:29:45.923Z,25.41
2017-08-16T09:30:45.933Z,25.39
2017-08-16T09:31:45.922Z,25.43
2017-08-16T09:32:45.921Z,25.51
2017-08-16T09:33:45.916Z,25.43
2017-08-16T09:34:45.910Z,25.39
2017-08-16T09:35:45.601Z,25.3
2017-08-16T09:36:45.912Z,25.36
2017-08-16T09:37:45.598Z,25.3
2017-08-16T09:38:45.902Z,25.3
2017-08-16T09:39:45.900Z,25.31
2017-08-16T09:40:45.898Z,25.3
2017-08-16T09:41:45.897Z,25.24
2017-08-16T09:42:45.894Z,25.26
2017-08-16T09:43:45.892Z,25.22
2017-08-16T09:44:45.887Z,25.26
2017-08-16T09:45:45.883Z,25.3
2017-08-16T09:46:45.887Z,25.24
2017-08-16T09:47:45.882Z,25.31
2017-08-16T09:48:45.881Z,25.33
2017-08-16T09:49:45.879Z,25.37
2017-08-16T09:50:45.568Z,25.36
2017-08-16T09:51:45.874Z,25.4
2017-08-16T09:52:45.872Z,25.43
2017-08-16T09:53:45.871Z,25.29
2017-08-16T09:54:45.871Z,25.34
2017-08-16T09:55:45.863Z,25.34
2017-08-16T09:56:45.865Z,25.39
2017-08-16T09:57:45.859Z,25.37
2017-08-16T09:58:45.859Z,25.39
2017-08-16T09:59:45.857Z,25.31
2017-08-16T10:00:45.853Z,25.3
2017-08-16T10:01:45.867Z,25.31
2017-08-16T10:02:45.848Z,25.25
2017-08-16T10:03:45.849Z,25.34
2017-08-16T10:04:45.850Z,25.39
2017-08-16T10:05:45.843Z,25.34
2017-08-16T10:06:45.845Z,25.36
2017-08-16T10:07:45.527Z,25.25
2017-08-16T10:08:45.841Z,25.26
2017-08-16T10:09:45.833Z,25.26
2017-08-16T10:10:45.833Z,25.21
2017-08-16T10:11:45.833Z,25.22
2017-08-16T10:12:45.824Z,25.25
2017-08-16T10:13:45.825Z,25.24
2017-08-16T10:14:45.836Z,25.22
2017-08-16T10:15:45.825Z,25.26
2017-08-16T10:16:45.826Z,25.22
2017-08-16T10:17:45.819Z,25.09
2017-08-16T10:18:45.816Z,25.04
2017-08-16T10:19:45.838Z,25.14
2017-08-16T10:20:45.822Z,25.07
2017-08-16T10:21:45.807Z,25.21
2017-08-16T10:22:45.805Z,25.24
2017-08-16T10:23:45.801Z,25.3
2017-08-16T10:24:45.499Z,25.34
2017-08-16T10:25:45.797Z,25.39
2017-08-16T10:26:45.489Z,25.48
2017-08-16T10:27:45.482Z,25.52
2017-08-16T10:28:45.802Z,25.63
2017-08-16T10:29:45.788Z,25.56
2017-08-16T10:30:45.515Z,25.68
2017-08-16T10:31:45.786Z,25.67
2017-08-16T10:32:45.790Z,25.77
2017-08-16T10:33:45.782Z,25.8
2017-08-16T10:34:45.782Z,25.74
2017-08-16T10:35:45.781Z,25.77
2017-08-16T10:36:45.779Z,25.67
2017-08-16T10:37:45.775Z,25.62
2017-08-16T10:38:45.769Z,25.54
2017-08-16T10:39:45.778Z,25.59
2017-08-16T10:40:45.771Z,25.51
2017-08-16T10:41:45.764Z,25.54
2017-08-16T10:42:45.767Z,25.54
2017-08-16T10:43:45.761Z,25.59
2017-08-16T10:44:45.757Z,25.58
2017-08-16T10:45:45.757Z,25.76
2017-08-16T10:46:45.752Z,25.68
2017-08-16T10:47:45.754Z,25.58
2017-08-16T10:48:45.751Z,25.59
2017-08-16T10:49:45.749Z,25.61
2017-08-16T10:50:45.746Z,25.61
2017-08-16T10:51:45.742Z,25.67
2017-08-16T10:52:45.742Z,25.66
2017-08-16T10:53:45.743Z,25.68
2017-08-16T10:54:45.737Z,25.74
2017-08-16T10:55:45.426Z,25.81
2017-08-16T10:56:45.426Z,25.86
2017-08-16T10:57:45.730Z,25.81
2017-08-16T10:58:45.732Z,25.81
2017-08-16T10:59:45.417Z,25.86
2017-08-16T11:00:45.736Z,25.83
2017-08-16T11:01:45.725Z,25.68
2017-08-16T11:02:45.720Z,25.58
2017-08-16T11:03:45.716Z,25.7
2017-08-16T11:04:45.720Z,25.66
2017-08-16T11:05:45.723Z,25.74
2017-08-16T11:06:45.713Z,25.74
2017-08-16T11:07:45.705Z,25.71
2017-08-16T11:08:45.707Z,25.81
2017-08-16T11:09:45.718Z,25.86
2017-08-16T11:10:45.703Z,25.8
2017-08-16T11:11:45.703Z,25.8
2017-08-16T11:12:45.704Z,25.68
2017-08-16T11:13:45.698Z,25.62
2017-08-16T11:14:45.695Z,25.74
2017-08-16T11:15:45.695Z,25.76
2017-08-16T11:16:45.381Z,25.81
2017-08-16T11:17:45.688Z,25.81
2017-08-16T11:18:45.685Z,25.77
2017-08-16T11:19:45.679Z,25.81
2017-08-16T11:20:45.683Z,25.81
2017-08-16T11:21:45.678Z,25.89
2017-08-16T11:22:45.680Z,25.85
2017-08-16T11:23:45.677Z,25.86
2017-08-16T11:24:45.364Z,25.96
2017-08-16T11:25:45.668Z,25.93
2017-08-16T11:26:45.668Z,25.88
2017-08-16T11:27:45.668Z,25.88
2017-08-16T11:28:45.358Z,25.88
2017-08-16T11:29:45.354Z,25.85
2017-08-16T11:30:45.663Z,25.89
2017-08-16T11:31:45.653Z,25.92
2017-08-16T11:32:45.673Z,25.93
2017-08-16T11:33:45.658Z,25.96
2017-08-16T11:34:45.348Z,25.93
2017-08-16T11:35:45.033Z,25.95
2017-08-16T11:36:45.644Z,25.92
2017-08-16T11:37:45.649Z,25.91
2017-08-16T11:38:45.644Z,25.92
2017-08-16T11:39:45.639Z,25.92
2017-08-16T11:40:45.639Z,25.92
2017-08-16T11:41:45.639Z,25.96
2017-08-16T11:42:45.637Z,25.88
2017-08-16T11:43:45.628Z,25.91
2017-08-16T11:44:45.322Z,25.89
2017-08-16T11:45:45.322Z,25.95
2017-08-16T11:46:45.629Z,25.93
2017-08-16T11:47:45.318Z,25.98
2017-08-16T11:48:45.623Z,26.06
2017-08-16T11:49:45.620Z,26.03
2017-08-16T11:50:45.627Z,26.1
2017-08-16T11:51:45.615Z,26.08
2017-08-16T11:52:45.628Z,26.03
2017-08-16T11:53:45.618Z,25.98
2017-08-16T11:54:45.611Z,25.96
2017-08-16T11:55:45.606Z,25.95
2017-08-16T11:56:45.612Z,25.99
2017-08-16T11:57:45.601Z,25.99
2017-08-16T11:58:45.597Z,26.07
2017-08-16T11:59:45.601Z,26.13
2017-08-16T12:00:45.595Z,26.13
2017-08-16T12:01:45.591Z,26.1
2017-08-16T12:02:45.600Z,26.11
2017-08-16T12:03:45.591Z,26.15
2017-08-16T12:04:45.588Z,26.08
2017-08-16T12:05:45.583Z,26.13
2017-08-16T12:06:45.581Z,26.06
2017-08-16T12:07:45.583Z,26.06
2017-08-16T12:08:45.584Z,26.13
2017-08-16T12:09:45.590Z,26.13
2017-08-16T12:10:45.581Z,26.19
2017-08-16T12:11:45.570Z,26.1
2017-08-16T12:12:45.569Z,26.1
2017-08-16T12:13:45.565Z,26.11
2017-08-16T12:14:45.565Z,26.04
2017-08-16T12:15:45.257Z,26.13
2017-08-16T12:16:45.254Z,26.08
2017-08-16T12:17:45.251Z,26.1
2017-08-16T12:18:45.562Z,26.1
2017-08-16T12:19:45.557Z,26.16
2017-08-16T12:20:45.556Z,26.11
2017-08-16T12:21:45.239Z,26.06
2017-08-16T12:22:45.550Z,26.23
2017-08-16T12:23:45.545Z,26.26
2017-08-16T12:24:45.551Z,26.29
2017-08-16T12:25:45.237Z,26.23
2017-08-16T12:26:45.539Z,26.23
2017-08-16T12:27:45.534Z,26.36
2017-08-16T12:28:45.531Z,26.34
2017-08-16T12:29:45.535Z,26.37
2017-08-16T12:30:45.534Z,26.36
2017-08-16T12:31:45.530Z,26.44
2017-08-16T12:32:45.523Z,26.51
2017-08-16T12:33:45.579Z,26.48
2017-08-16T12:34:45.527Z,26.61
2017-08-16T12:35:45.219Z,26.55
2017-08-16T12:36:44.905Z,26.55
2017-08-16T12:37:45.517Z,26.52
2017-08-16T12:38:45.510Z,26.45
2017-08-16T12:39:45.514Z,26.37
2017-08-16T12:40:45.513Z,26.3
2017-08-16T12:41:45.507Z,26.24
2017-08-16T12:42:45.207Z,26.36
2017-08-16T12:43:45.540Z,26.36
2017-08-16T12:44:45.511Z,26.39
2017-08-16T12:45:45.503Z,26.49
2017-08-16T12:46:45.502Z,26.45
2017-08-16T12:47:45.188Z,26.52
2017-08-16T12:48:45.628Z,26.6
2017-08-16T12:49:45.699Z,26.56
2017-08-16T12:50:45.668Z,26.59
2017-08-16T12:51:45.373Z,26.52
2017-08-16T12:52:45.597Z,26.55
2017-08-16T12:53:45.585Z,26.55
2017-08-16T12:54:45.578Z,26.55
2017-08-16T12:55:45.632Z,26.56
2017-08-16T12:56:45.500Z,26.55